Time;durP1;ratioP1;P1;durP2;ratioP2;P2;SDS_P1;SDS_P2;PMS_P1;PMS_P2;Temp;Humidity;BMP_temperature;BMP_pressure;BME280_temperature;BME280_humidity;BME280_pressure;Samples;Min_cycle;Max_cycle;Signal;HPM_P1;HPM_P2
2022/01/03 00:00:21;;;;;;;4.63;2.60;;;;;;;9.66;80.76;100226.19;7394811;19;20027;-65
2022/01/03 00:02:49;;;;;;;5.88;3.08;;;;;;;9.68;82.28;100213.94;7394863;19;20010;-65
2022/01/03 00:05:20;;;;;;;4.95;2.53;;;;;;;9.69;82.16;100217.41;7393667;19;20023;-65
2022/01/03 00:07:49;;;;;;;7.25;2.92;;;;;;;9.68;81.23;100211.31;7394036;19;20413;-65
2022/01/03 00:10:19;;;;;;;7.53;2.80;;;;;;;9.69;81.40;100204.31;7396119;19;20023;-65
2022/01/03 00:12:50;;;;;;;4.65;2.90;;;;;;;9.68;82.19;100197.34;7401975;19;20022;-65
2022/01/03 00:15:20;;;;;;;4.28;2.65;;;;;;;9.66;82.79;100201.78;7401005;19;20014;-65
2022/01/03 00:17:49;;;;;;;3.80;2.45;;;;;;;9.65;83.78;100195.66;7400717;19;20011;-65
2022/01/03 00:20:20;;;;;;;5.20;2.53;;;;;;;9.54;83.33;100182.00;7400935;19;20483;-65
2022/01/03 00:22:53;;;;;;;2.80;2.30;;;;;;;9.54;83.35;100192.47;7401134;19;20369;-65
2022/01/03 00:25:24;;;;;;;7.50;2.53;;;;;;;9.51;84.69;100193.41;7400628;19;20018;-65
2022/01/03 00:28:01;;;;;;;2.95;2.28;;;;;;;9.45;85.12;100191.81;7401482;19;20014;-65
2022/01/03 00:30:29;;;;;;;6.10;2.40;;;;;;;9.40;85.89;100191.09;7401297;19;20028;-65
2022/01/03 00:33:00;;;;;;;4.10;2.55;;;;;;;9.36;86.87;100181.56;7400843;19;20019;-65
2022/01/03 00:35:31;;;;;;;5.70;3.00;;;;;;;9.28;87.14;100179.16;7400185;19;20019;-65
2022/01/03 00:38:02;;;;;;;4.45;2.97;;;;;;;9.22;88.01;100184.53;7399637;19;20353;-65
2022/01/03 00:40:30;;;;;;;4.00;2.83;;;;;;;9.17;88.36;100181.19;7398281;19;20496;-65
2022/01/03 00:42:58;;;;;;;5.65;3.00;;;;;;;9.12;88.98;100180.44;7400615;19;20018;-65
2022/01/03 00:45:26;;;;;;;6.60;3.35;;;;;;;9.06;89.51;100181.47;7399179;19;20385;-65
2022/01/03 00:47:55;;;;;;;5.93;2.97;;;;;;;9.00;89.85;100179.00;7400461;19;20030;-65
2022/01/03 00:50:25;;;;;;;7.55;3.00;;;;;;;8.96;90.41;100169.50;7399968;19;20379;-65
2022/01/03 00:52:56;;;;;;;4.85;3.38;;;;;;;8.89;91.17;100173.16;7400270;19;20031;-65
2022/01/03 00:55:24;;;;;;;5.15;3.00;;;;;;;8.84;91.60;100181.09;7398986;19;20494;-65
2022/01/03 00:58:01;;;;;;;5.80;3.83;;;;;;;8.76;92.28;100177.81;7399186;19;20027;-65
2022/01/03 01:00:32;;;;;;;6.28;3.38;;;;;;;8.72;93.00;100181.38;7400483;19;20017;-66
2022/01/03 01:03:09;;;;;;;5.88;3.33;;;;;;;8.64;93.63;100182.44;7400311;19;20014;-65
2022/01/03 01:05:39;;;;;;;6.43;3.28;;;;;;;8.53;94.32;100173.97;7398976;19;20014;-65
2022/01/03 01:08:10;;;;;;;5.85;3.20;;;;;;;8.48;94.44;100166.22;7397792;19;20018;-65
2022/01/03 01:10:40;;;;;;;4.10;3.28;;;;;;;8.40;94.91;100159.41;7399443;19;20381;-65
2022/01/03 01:13:11;;;;;;;6.72;2.90;;;;;;;8.32;95.07;100165.66;7399734;19;20011;-65
2022/01/03 01:15:40;;;;;;;8.02;2.45;;;;;;;8.27;95.43;100172.75;7398881;19;20030;-65
2022/01/03 01:18:08;;;;;;;3.97;2.50;;;;;;;8.21;96.14;100170.25;7398004;19;20374;-65
2022/01/03 01:20:39;;;;;;;7.63;2.80;;;;;;;8.15;96.63;100178.22;7398867;19;20014;-66
2022/01/03 01:23:11;;;;;;;4.95;2.60;;;;;;;8.05;96.93;100171.47;7399369;19;20015;-66
2022/01/03 01:28:21;;;;;;;5.20;2.85;;;;;;;8.03;97.49;100178.50;7399220;19;20022;-66
2022/01/03 01:30:56;;;;;;;3.08;1.83;;;;;;;7.98;97.60;100173.34;7399017;19;20078;-66
2022/01/03 01:33:30;;;;;;;3.63;1.70;;;;;;;7.94;97.74;100175.16;7399372;19;20010;-66
2022/01/03 01:36:07;;;;;;;4.07;1.73;;;;;;;7.91;97.87;100172.63;7397256;19;20504;-66
2022/01/03 01:38:41;;;;;;;3.28;2.17;;;;;;;7.89;98.15;100148.28;7397697;19;20015;-66
2022/01/03 01:41:10;;;;;;;2.83;1.90;;;;;;;7.87;98.50;100117.88;7397210;19;20031;-66
2022/01/03 01:43:41;;;;;;;4.03;2.00;;;;;;;7.86;98.53;100126.59;7398729;19;20018;-66
2022/01/03 01:46:12;;;;;;;2.97;2.03;;;;;;;7.82;98.91;100158.00;7397109;19;20045;-66
2022/01/03 01:48:42;;;;;;;5.93;1.98;;;;;;;7.81;99.31;100152.81;7398869;19;20011;-67
2022/01/03 01:51:12;;;;;;;4.88;2.60;;;;;;;7.76;99.38;100136.34;7398778;19;20040;-66
2022/01/03 01:53:47;;;;;;;3.08;2.25;;;;;;;7.78;99.74;100130.19;7398613;19;20027;-66
2022/01/03 01:56:19;;;;;;;4.28;2.60;;;;;;;7.78;100.00;100142.41;7396879;19;20439;-66
2022/01/03 01:59:15;;;;;;;4.68;2.85;;;;;;;7.78;99.99;100138.03;7397334;19;20018;-67
2022/01/03 02:01:58;;;;;;;6.55;3.53;;;;;;;7.77;100.00;100133.72;7398428;19;20027;-67
2022/01/03 02:04:46;;;;;;;7.10;3.33;;;;;;;7.78;100.00;100134.56;7398222;19;20020;-66
2022/01/03 02:07:29;;;;;;;4.47;3.67;;;;;;;7.79;100.00;100136.31;7398039;19;20443;-66
2022/01/03 02:10:10;;;;;;;6.20;4.30;;;;;;;7.80;100.00;100130.19;7398002;19;20025;-66
2022/01/03 02:12:46;;;;;;;7.50;4.30;;;;;;;7.80;100.00;100125.81;7398094;19;20503;-66
2022/01/03 02:15:16;;;;;;;7.72;5.07;;;;;;;7.81;100.00;100122.31;7396822;19;20018;-66
2022/01/03 02:17:46;;;;;;;7.40;5.72;;;;;;;7.83;100.00;100117.06;7396628;19;20373;-66
2022/01/03 02:20:20;;;;;;;12.65;7.40;;;;;;;7.81;100.00;100108.41;7397124;19;20019;-67
2022/01/03 02:22:49;;;;;;;13.68;7.85;;;;;;;7.84;100.00;100108.34;7397241;19;20018;-67
2022/01/03 02:25:18;;;;;;;13.95;8.63;;;;;;;7.86;100.00;100110.91;7396543;19;20018;-66
2022/01/03 02:27:55;;;;;;;15.57;7.90;;;;;;;7.86;100.00;100117.00;7397134;19;20027;-67
2022/01/03 02:30:26;;;;;;;12.48;6.50;;;;;;;7.87;100.00;100110.03;7396499;19;20386;-66
2022/01/03 02:32:55;;;;;;;14.40;7.20;;;;;;;7.87;100.00;100117.88;7395479;19;20011;-67
2022/01/03 02:35:26;;;;;;;8.77;5.93;;;;;;;7.86;100.00;100110.91;7395771;19;20479;-67
2022/01/03 02:37:55;;;;;;;10.82;5.38;;;;;;;7.86;100.00;100101.34;7396730;19;20015;-66
2022/01/03 02:40:24;;;;;;;6.60;4.72;;;;;;;7.87;100.00;100094.34;7394950;19;20099;-66
2022/01/03 02:42:53;;;;;;;8.00;4.70;;;;;;;7.86;100.00;100095.25;7396522;19;20031;-66
2022/01/03 02:45:24;;;;;;;7.30;3.85;;;;;;;7.85;100.00;100089.16;7395856;19;20014;-67
2022/01/03 02:47:54;;;;;;;5.88;3.20;;;;;;;7.85;100.00;100083.94;7396745;19;20018;-66
2022/01/03 02:50:27;;;;;;;6.63;3.22;;;;;;;7.86;99.67;100074.34;7397585;19;20349;-66
2022/01/03 02:52:56;;;;;;;5.32;2.88;;;;;;;7.78;99.46;100070.13;7399352;19;20021;-67
2022/01/03 02:55:26;;;;;;;4.10;2.95;;;;;;;7.82;99.80;100073.56;7398566;19;20035;-67
2022/01/03 02:57:56;;;;;;;5.50;3.17;;;;;;;7.80;99.39;100067.53;7396435;19;20029;-67
2022/01/03 03:00:28;;;;;;;7.30;2.92;;;;;;;7.75;99.07;100072.81;7396459;19;20070;-66
2022/01/03 03:02:57;;;;;;;4.25;3.03;;;;;;;7.69;99.18;100059.91;7396294;19;20014;-65
2022/01/03 03:05:28;;;;;;;3.33;2.63;;;;;;;7.69;98.70;100062.50;7395071;19;20022;-65
2022/01/03 03:07:56;;;;;;;6.20;2.38;;;;;;;7.66;98.49;100053.00;7396344;19;20018;-66
2022/01/03 03:10:26;;;;;;;3.80;2.13;;;;;;;7.63;98.29;100050.47;7395732;19;20015;-65
2022/01/03 03:12:55;;;;;;;3.60;2.00;;;;;;;7.64;97.66;100057.38;7396108;19;20014;-65
2022/01/03 03:15:24;;;;;;;5.10;1.88;;;;;;;7.64;97.65;100062.59;7394887;19;20018;-65
2022/01/03 03:17:52;;;;;;;3.88;1.90;;;;;;;7.64;97.40;100072.19;7395654;19;20015;-65
2022/01/03 03:20:22;;;;;;;4.35;1.63;;;;;;;7.65;97.46;100071.31;7396635;19;20015;-66
2022/01/03 03:22:54;;;;;;;3.05;1.45;;;;;;;7.63;97.02;100066.13;7396476;19;20011;-66
2022/01/03 03:25:24;;;;;;;2.15;1.48;;;;;;;7.65;96.74;100058.25;7395681;19;20074;-66
2022/01/03 03:27:55;;;;;;;3.33;1.63;;;;;;;7.65;97.07;100055.63;7395557;19;20019;-67
2022/01/03 03:30:26;;;;;;;2.67;1.38;;;;;;;7.65;96.36;100058.25;7394742;19;20519;-66
2022/01/03 03:32:56;;;;;;;3.70;1.35;;;;;;;7.63;96.13;100060.91;7394809;19;20024;-65
2022/01/03 03:35:25;;;;;;;2.78;1.38;;;;;;;7.65;96.98;100063.47;7394476;19;20010;-66
2022/01/03 03:37:56;;;;;;;2.22;1.40;;;;;;;7.64;96.42;100052.16;7394732;19;20027;-66
2022/01/03 03:40:24;;;;;;;3.55;1.40;;;;;;;7.63;95.41;100063.50;7393315;19;20017;-65
2022/01/03 03:42:52;;;;;;;4.15;1.38;;;;;;;7.64;95.99;100067.81;7394738;19;20010;-65
2022/01/03 03:45:21;;;;;;;3.10;1.50;;;;;;;7.66;95.59;100065.19;7399108;19;20031;-65
2022/01/03 03:47:51;;;;;;;2.30;1.25;;;;;;;7.66;93.98;100058.22;7402278;19;20026;-65
2022/01/03 03:50:20;;;;;;;3.85;1.30;;;;;;;7.63;93.86;100055.69;7401897;19;20492;-65
2022/01/03 03:52:49;;;;;;;2.60;1.27;;;;;;;7.69;93.72;100061.66;7401958;19;20015;-65
2022/01/03 03:55:19;;;;;;;2.40;1.30;;;;;;;7.69;93.51;100051.22;7400736;19;20501;-65
2022/01/03 03:57:48;;;;;;;2.83;1.20;;;;;;;7.71;94.83;100057.25;7401596;19;20504;-66
2022/01/03 04:00:18;;;;;;;7.72;4.57;;;;;;;7.70;95.08;100059.00;7399286;19;20018;-66
2022/01/03 04:02:46;;;;;;;4.03;1.58;;;;;;;7.71;94.41;100075.53;7402196;19;20011;-66
2022/01/03 04:05:15;;;;;;;1.98;1.70;;;;;;;7.71;93.62;100093.81;7400409;19;20391;-66
2022/01/03 04:07:44;;;;;;;3.85;1.70;;;;;;;7.72;93.73;100092.91;7401586;19;20014;-66
2022/01/03 04:10:15;;;;;;;2.33;1.33;;;;;;;7.71;94.68;100084.25;7401415;19;20027;-66
2022/01/03 04:12:48;;;;;;;3.75;1.40;;;;;;;7.73;94.38;100089.41;7401052;19;20513;-66
2022/01/03 04:15:16;;;;;;;5.07;1.58;;;;;;;7.69;93.53;100093.84;7400860;19;20031;-65
2022/01/03 04:17:45;;;;;;;4.40;1.13;;;;;;;7.73;91.58;100095.50;7401604;19;20386;-66
2022/01/03 04:20:16;;;;;;;3.92;1.55;;;;;;;7.77;92.30;100098.91;7398917;19;20010;-66
2022/01/03 04:22:44;;;;;;;5.28;1.48;;;;;;;7.79;88.63;100100.59;7400676;19;20482;-66
2022/01/03 04:25:14;;;;;;;5.25;1.50;;;;;;;7.84;89.52;100108.34;7400093;19;20036;-66
2022/01/03 04:27:45;;;;;;;3.65;1.20;;;;;;;7.89;88.13;100109.09;7401127;19;20036;-66
2022/01/03 04:30:14;;;;;;;4.03;1.15;;;;;;;7.94;88.19;100111.63;7401446;19;20027;-65
2022/01/03 04:32:42;;;;;;;2.80;0.90;;;;;;;7.98;88.90;100108.91;7400529;19;20027;-65
2022/01/03 04:35:11;;;;;;;2.65;1.00;;;;;;;8.02;87.41;100109.69;7399736;19;20014;-66
2022/01/03 04:37:39;;;;;;;3.42;0.90;;;;;;;8.08;86.48;100106.09;7400239;19;20014;-66
2022/01/03 04:40:09;;;;;;;5.70;1.20;;;;;;;8.11;85.87;100114.75;7397196;19;20002;-66
2022/01/03 04:42:37;;;;;;;3.33;1.17;;;;;;;8.17;82.85;100124.19;7400747;19;20015;-66
2022/01/03 04:45:09;;;;;;;5.07;1.27;;;;;;;8.20;82.50;100126.75;7399150;19;20015;-66
2022/01/03 04:47:38;;;;;;;1.70;0.70;;;;;;;8.27;81.39;100140.53;7399153;19;20483;-66
2022/01/03 04:50:07;;;;;;;4.28;0.73;;;;;;;8.32;80.01;100199.63;7399646;19;20010;-66
2022/01/03 04:52:35;;;;;;;10.73;1.50;;;;;;;8.39;79.87;100152.47;7399992;19;20011;-66
2022/01/03 04:55:04;;;;;;;3.35;0.80;;;;;;;8.41;82.67;100156.75;7399229;19;20031;-66
2022/01/03 04:57:32;;;;;;;4.97;1.35;;;;;;;8.43;81.62;100154.97;7398381;19;20018;-66
2022/01/03 05:00:00;;;;;;;3.88;0.80;;;;;;;8.43;81.10;100185.50;7398089;19;20028;-65
2022/01/03 05:02:31;;;;;;;7.80;1.00;;;;;;;8.38;82.15;100184.72;7399865;19;20018;-66
2022/01/03 05:04:59;;;;;;;4.25;0.70;;;;;;;8.33;83.01;100177.00;7399568;19;20093;-66
2022/01/03 05:07:27;;;;;;;8.00;1.88;;;;;;;8.28;83.71;100182.31;7399000;19;20504;-66
2022/01/03 05:09:55;;;;;;;5.63;1.38;;;;;;;8.24;82.13;100188.50;7399285;19;20022;-66
2022/01/03 05:12:24;;;;;;;4.75;1.00;;;;;;;8.24;84.67;100185.00;7399205;19;20023;-66
2022/01/03 05:14:52;;;;;;;7.80;1.27;;;;;;;8.22;82.12;100190.28;7398576;19;20483;-66
2022/01/03 05:17:20;;;;;;;5.32;0.98;;;;;;;8.18;80.24;100174.72;7399130;19;20023;-66
2022/01/03 05:19:51;;;;;;;2.67;0.90;;;;;;;8.24;78.76;100193.72;7397476;19;20023;-66
2022/01/03 05:22:19;;;;;;;6.47;1.33;;;;;;;8.28;83.80;100181.47;7398562;19;20512;-66
2022/01/03 05:24:47;;;;;;;4.78;0.85;;;;;;;8.27;83.02;100193.66;7398636;19;20019;-66
2022/01/03 05:27:15;;;;;;;4.53;0.95;;;;;;;8.29;81.33;100202.34;7398573;19;20031;-65
2022/01/03 05:29:44;;;;;;;8.52;1.67;;;;;;;8.30;79.18;100203.19;7398354;19;20026;-66
2022/01/03 05:32:12;;;;;;;6.63;1.23;;;;;;;8.31;78.66;100205.78;7397753;19;20014;-66
2022/01/03 05:34:40;;;;;;;6.22;1.17;;;;;;;8.36;78.80;100216.13;7398456;19;20031;-66
2022/01/03 05:37:11;;;;;;;4.22;1.02;;;;;;;8.39;77.72;100207.34;7398016;19;20018;-65
2022/01/03 05:39:39;;;;;;;6.25;1.52;;;;;;;8.42;80.15;100221.22;7397712;19;20014;-66
2022/01/03 05:42:08;;;;;;;4.78;1.00;;;;;;;8.47;78.40;100210.72;7398380;19;20014;-66
2022/01/03 05:44:36;;;;;;;5.95;1.40;;;;;;;8.49;78.66;100216.75;7398078;19;20024;-66
2022/01/03 05:47:05;;;;;;;6.40;1.40;;;;;;;8.52;78.61;100221.94;7395535;19;20031;-64
2022/01/03 05:49:33;;;;;;;5.43;0.95;;;;;;;8.55;80.27;100214.00;7397802;19;20015;-65
2022/01/03 05:52:01;;;;;;;6.60;1.63;;;;;;;8.57;81.25;100208.75;7397168;19;20038;-64
2022/01/03 05:54:32;;;;;;;6.22;1.10;;;;;;;8.57;80.80;100227.91;7397339;19;20022;-66
2022/01/03 05:57:00;;;;;;;5.90;1.60;;;;;;;8.57;79.12;100214.84;7395361;19;20010;-66
2022/01/03 05:59:29;;;;;;;2.35;0.70;;;;;;;8.58;78.79;100241.84;7396229;19;20010;-65
2022/01/03 06:01:57;;;;;;;5.90;1.13;;;;;;;8.57;79.37;100233.16;7396440;19;20014;-64
2022/01/03 06:04:38;;;;;;;6.55;1.00;;;;;;;8.57;79.15;100232.28;7396088;19;20379;-65
2022/01/03 06:07:08;;;;;;;12.18;2.05;;;;;;;8.55;79.27;100268.91;7392895;19;20455;-66
2022/01/03 06:09:39;;;;;;;4.45;1.02;;;;;;;8.54;80.56;100240.19;7394758;19;20048;-65
2022/01/03 06:12:09;;;;;;;8.25;1.13;;;;;;;8.53;80.02;100249.81;7395097;19;20359;-65
2022/01/03 06:14:37;;;;;;;9.75;2.13;;;;;;;8.53;82.38;100236.72;7395631;19;20377;-65
2022/01/03 06:17:07;;;;;;;10.40;1.55;;;;;;;8.52;80.03;100244.59;7392429;19;20504;-67
2022/01/03 06:19:35;;;;;;;9.40;2.15;;;;;;;8.50;82.41;100242.00;7394546;19;20451;-66
2022/01/03 06:22:04;;;;;;;8.82;2.05;;;;;;;8.48;80.10;100249.88;7395908;19;20010;-66
2022/01/03 06:24:33;;;;;;;7.43;1.67;;;;;;;8.48;81.77;100265.56;7395275;19;20015;-64
2022/01/03 06:27:03;;;;;;;9.95;2.00;;;;;;;8.46;81.63;100264.72;7393145;19;20041;-65
2022/01/03 06:29:32;;;;;;;7.32;1.88;;;;;;;8.45;81.76;100256.91;7396416;19;20038;-66
2022/01/03 06:32:00;;;;;;;8.60;2.72;;;;;;;8.47;85.17;100270.84;7396791;19;20015;-67
2022/01/03 06:34:28;;;;;;;8.38;2.08;;;;;;;8.44;84.76;100266.50;7395668;19;20015;-65
2022/01/03 06:36:56;;;;;;;4.55;1.80;;;;;;;8.43;84.67;100264.78;7394197;19;20032;-68
2022/01/03 06:39:25;;;;;;;9.30;3.05;;;;;;;8.38;85.03;100270.97;7394465;19;20378;-67
2022/01/03 06:41:53;;;;;;;7.07;1.73;;;;;;;8.36;84.40;100288.47;7393642;19;20040;-67
2022/01/03 06:44:24;;;;;;;7.38;1.92;;;;;;;8.32;84.29;100266.75;7395517;19;20040;-67
2022/01/03 06:46:52;;;;;;;10.38;2.05;;;;;;;8.29;82.18;100282.47;7393601;19;20018;-68
2022/01/03 06:49:20;;;;;;;7.40;2.15;;;;;;;8.27;83.96;100282.50;7396018;19;20015;-68
2022/01/03 06:51:48;;;;;;;10.55;1.85;;;;;;;8.27;85.09;100286.88;7395983;19;20018;-67
2022/01/03 06:54:17;;;;;;;7.63;1.65;;;;;;;8.24;85.41;100306.09;7395958;19;20010;-67
2022/01/03 06:56:45;;;;;;;11.52;2.00;;;;;;;8.21;85.56;100290.47;7394723;19;20022;-68
2022/01/03 06:59:13;;;;;;;7.93;1.60;;;;;;;8.18;86.16;100293.16;7396546;19;20019;-68
2022/01/03 07:01:44;;;;;;;5.85;1.70;;;;;;;8.17;85.13;100307.09;7395367;19;20540;-66
2022/01/03 07:04:12;;;;;;;8.80;2.28;;;;;;;8.15;84.49;100301.03;7396010;19;20019;-66
2022/01/03 07:06:40;;;;;;;11.00;1.85;;;;;;;8.14;86.43;100301.94;7394336;19;20015;-67
2022/01/03 07:09:09;;;;;;;9.68;1.80;;;;;;;8.13;86.10;100303.69;7395757;19;20118;-67
2022/01/03 07:11:38;;;;;;;6.50;1.67;;;;;;;8.13;86.48;100308.91;7395081;19;20045;-68
2022/01/03 07:18:56;;;;;;;6.82;1.30;;;;;;;8.13;85.99;100310.69;7395086;19;20029;-66
2022/01/03 07:19:43;;;;;;;7.72;1.65;;;;;;;8.12;85.07;100307.19;7392149;19;20007;-67
2022/01/03 07:22:18;;;;;;;8.60;1.92;;;;;;;8.13;84.28;100313.28;7394629;19;20508;-67
2022/01/03 07:24:47;;;;;;;8.07;1.92;;;;;;;8.14;84.42;100333.31;7395655;19;20007;-67
2022/01/03 07:27:16;;;;;;;8.43;1.48;;;;;;;8.15;83.27;100321.94;7394832;19;20020;-67
2022/01/03 07:29:46;;;;;;;11.35;2.47;;;;;;;8.18;83.13;100336.72;7393695;19;20028;-67
2022/01/03 07:32:17;;;;;;;8.43;1.90;;;;;;;8.18;83.03;100339.34;7393788;19;20489;-68
2022/01/03 07:34:45;;;;;;;7.32;2.55;;;;;;;8.20;84.28;100324.47;7394852;19;20023;-67
2022/01/03 07:37:13;;;;;;;6.35;1.40;;;;;;;8.17;81.04;100341.06;7394047;19;20488;-68
2022/01/03 07:39:42;;;;;;;9.75;1.65;;;;;;;8.18;81.55;100339.34;7393008;19;20483;-68
2022/01/03 07:42:10;;;;;;;10.15;1.60;;;;;;;8.16;78.53;100352.41;7394901;19;20018;-68
2022/01/03 07:44:39;;;;;;;5.43;1.20;;;;;;;8.19;81.32;100354.09;7394591;19;20018;-67
2022/01/03 07:47:08;;;;;;;9.80;1.60;;;;;;;8.19;82.37;100336.69;7394513;19;20015;-67
2022/01/03 07:49:38;;;;;;;8.63;1.40;;;;;;;8.22;82.34;100348.84;7394151;19;20483;-68
2022/01/03 07:52:07;;;;;;;11.40;1.50;;;;;;;8.19;78.44;100368.06;7393847;19;20503;-68
2022/01/03 07:54:36;;;;;;;9.35;1.40;;;;;;;8.23;80.11;100371.47;7393635;19;20500;-68
2022/01/03 07:57:04;;;;;;;10.20;1.65;;;;;;;8.26;81.62;100360.97;7392237;19;20014;-68
2022/01/03 07:59:32;;;;;;;10.80;1.75;;;;;;;8.26;81.53;100360.97;7394700;19;20028;-68
2022/01/03 08:02:01;;;;;;;8.95;2.03;;;;;;;8.26;78.63;100367.03;7393311;19;20011;-68
2022/01/03 08:04:30;;;;;;;8.77;2.10;;;;;;;8.29;79.93;100372.22;7393796;19;20021;-68
2022/01/03 08:07:01;;;;;;;7.22;1.80;;;;;;;8.31;80.77;100364.34;7392000;19;20019;-68
2022/01/03 08:09:35;;;;;;;7.90;1.83;;;;;;;8.32;76.54;100366.06;7394513;19;20032;-68
2022/01/03 08:12:05;;;;;;;10.55;2.80;;;;;;;8.36;78.72;100372.09;7393829;19;20014;-67
2022/01/03 08:14:34;;;;;;;10.38;1.98;;;;;;;8.38;81.56;100360.72;7393534;19;20014;-68
2022/01/03 08:17:02;;;;;;;6.95;1.98;;;;;;;8.41;80.13;100380.72;7392041;19;20035;-67
2022/01/03 08:19:30;;;;;;;11.73;2.30;;;;;;;8.43;79.50;100358.03;7393504;19;20018;-67
2022/01/03 08:22:01;;;;;;;11.73;2.28;;;;;;;8.44;80.69;100362.34;7393525;19;20014;-66
2022/01/03 08:24:29;;;;;;;9.32;2.13;;;;;;;8.40;78.84;100373.78;7394721;19;20031;-68
2022/01/03 08:26:58;;;;;;;13.02;2.13;;;;;;;8.45;81.58;100371.94;7391227;19;20023;-67
2022/01/03 08:29:26;;;;;;;10.10;2.80;;;;;;;8.46;81.10;100364.09;7393452;19;20027;-68
2022/01/03 08:31:54;;;;;;;11.55;2.17;;;;;;;8.48;81.18;100379.75;7397473;19;20017;-68
2022/01/03 08:34:23;;;;;;;8.45;1.77;;;;;;;8.47;80.17;100373.66;7400341;19;20011;-68
2022/01/03 08:36:51;;;;;;;7.85;2.30;;;;;;;8.49;83.04;100378.84;7398079;19;20015;-68
2022/01/03 08:39:22;;;;;;;4.88;1.95;;;;;;;8.50;81.84;100371.88;7397430;19;20023;-68
2022/01/03 08:41:50;;;;;;;9.63;1.88;;;;;;;8.50;80.67;100375.34;7398060;19;20023;-68
2022/01/03 08:44:18;;;;;;;11.13;2.88;;;;;;;8.52;79.74;100380.53;7400537;19;20015;-68
2022/01/03 08:46:49;;;;;;;9.77;2.03;;;;;;;8.53;81.96;100374.44;7397663;19;20041;-68
2022/01/03 08:49:18;;;;;;;9.18;2.05;;;;;;;8.57;81.39;100365.66;7400726;19;20109;-68
2022/01/03 08:51:46;;;;;;;8.07;2.88;;;;;;;8.59;80.67;100376.94;7399243;19;20011;-68
2022/01/03 08:54:15;;;;;;;9.23;2.13;;;;;;;8.62;80.56;100369.88;7399584;19;20015;-68
2022/01/03 08:56:45;;;;;;;6.40;1.98;;;;;;;8.63;80.30;100370.75;7398067;19;20022;-68
2022/01/03 08:59:13;;;;;;;13.10;4.70;;;;;;;8.67;83.90;100382.88;7400025;19;20389;-68
2022/01/03 09:01:42;;;;;;;12.70;2.45;;;;;;;8.69;83.34;100381.06;7397498;19;20019;-68
2022/01/03 09:04:10;;;;;;;8.05;2.00;;;;;;;8.70;83.01;100390.66;7399152;19;20497;-68
2022/01/03 09:06:38;;;;;;;12.57;2.10;;;;;;;8.70;81.38;100390.66;7397033;19;20014;-68
2022/01/03 09:09:07;;;;;;;9.48;2.10;;;;;;;8.68;82.75;100384.63;7399240;19;20027;-68
2022/01/03 09:11:35;;;;;;;4.93;2.30;;;;;;;8.68;82.18;100384.63;7399433;19;20014;-68
2022/01/03 09:14:06;;;;;;;8.43;3.20;;;;;;;8.67;83.27;100387.22;7399215;19;20023;-68
2022/01/03 09:16:35;;;;;;;10.10;2.35;;;;;;;8.67;82.71;100382.00;7397606;19;20106;-68
2022/01/03 09:19:03;;;;;;;9.55;2.42;;;;;;;8.66;79.59;100386.38;7399195;19;20031;-68
2022/01/03 09:21:31;;;;;;;8.32;2.28;;;;;;;8.66;83.04;100385.50;7397545;19;20027;-68
2022/01/03 09:24:20;;;;;;;6.10;2.97;;;;;;;8.65;83.08;100387.28;7398589;19;20010;-67
2022/01/03 09:29:31;;;;;;;8.20;2.97;;;;;;;8.64;80.41;100388.16;7398442;19;20089;-68
2022/01/03 09:32:00;;;;;;;5.78;2.60;;;;;;;8.66;82.48;100380.28;7398696;19;20389;-68
2022/01/03 09:34:28;;;;;;;8.68;2.40;;;;;;;8.66;79.94;100377.66;7398469;19;20082;-68
2022/01/03 09:36:56;;;;;;;8.85;2.38;;;;;;;8.68;82.79;100383.72;7396226;19;20022;-67
2022/01/03 09:39:24;;;;;;;7.03;2.53;;;;;;;8.69;82.50;100382.84;7397843;19;20036;-66
2022/01/03 09:41:59;;;;;;;9.82;3.33;;;;;;;8.67;77.63;100393.34;7395015;19;20015;-67
2022/01/03 09:44:35;;;;;;;9.65;2.53;;;;;;;8.65;75.93;100382.03;7398434;19;20014;-67
2022/01/03 09:47:07;;;;;;;7.05;2.80;;;;;;;8.65;76.29;100382.03;7395720;19;20483;-68
2022/01/03 09:49:38;;;;;;;8.75;2.78;;;;;;;8.66;78.00;100381.16;7398352;19;20027;-67
2022/01/03 09:52:08;;;;;;;8.60;2.60;;;;;;;8.73;78.66;100397.56;7398080;19;20056;-67
2022/01/03 09:54:38;;;;;;;5.68;2.30;;;;;;;8.77;80.74;100389.66;7398777;19;20503;-67
2022/01/03 09:57:08;;;;;;;9.52;2.60;;;;;;;8.83;80.52;100382.56;7397684;19;20360;-68
2022/01/03 09:59:39;;;;;;;7.50;2.22;;;;;;;8.86;77.42;100388.59;7397899;19;20014;-67
2022/01/03 10:02:09;;;;;;;10.05;2.38;;;;;;;8.95;79.53;100392.78;7395822;19;20493;-67
2022/01/03 10:04:37;;;;;;;8.27;2.60;;;;;;;9.02;79.43;100388.28;7397296;19;20014;-67
2022/01/03 10:07:06;;;;;;;12.23;3.20;;;;;;;9.06;77.60;100385.56;7395062;19;20022;-67
2022/01/03 10:09:35;;;;;;;9.35;3.25;;;;;;;9.11;76.63;100378.47;7397076;19;20475;-67
2022/01/03 10:12:03;;;;;;;6.50;2.45;;;;;;;9.15;76.35;100384.53;7397222;19;20015;-67
2022/01/03 10:14:31;;;;;;;9.10;2.70;;;;;;;9.22;79.10;100383.47;7396891;19;20021;-67
2022/01/03 10:17:02;;;;;;;7.75;2.50;;;;;;;9.27;77.80;100386.84;7394515;19;20022;-67
2022/01/03 10:19:30;;;;;;;9.68;2.90;;;;;;;9.32;76.86;100380.66;7397236;19;20018;-67
2022/01/03 10:21:58;;;;;;;11.27;2.78;;;;;;;9.35;77.87;100376.22;7394537;19;20492;-67
2022/01/03 10:24:35;;;;;;;9.35;2.40;;;;;;;9.32;72.78;100372.81;7396628;19;20108;-66
2022/01/03 10:27:04;;;;;;;13.73;2.58;;;;;;;9.36;77.07;100375.31;7393844;19;20398;-67
2022/01/03 10:29:34;;;;;;;5.65;2.95;;;;;;;9.42;78.42;100362.09;7396695;19;20019;-67
2022/01/03 10:32:09;;;;;;;11.98;2.67;;;;;;;9.40;72.99;100368.25;7396617;19;20115;-67
2022/01/03 10:34:38;;;;;;;9.00;3.22;;;;;;;9.43;77.07;100363.81;7396235;19;20501;-67
2022/01/03 10:37:13;;;;;;;7.93;3.33;;;;;;;9.45;74.59;100353.28;7394652;19;20019;-67
2022/01/03 10:39:41;;;;;;;7.32;3.45;;;;;;;9.48;77.89;100357.59;7397094;19;20015;-67
2022/01/03 10:42:18;;;;;;;6.63;2.30;;;;;;;9.49;73.28;100360.19;7394210;19;20027;-67
2022/01/03 10:44:47;;;;;;;10.73;2.40;;;;;;;9.51;75.96;100349.69;7395561;19;20521;-68
2022/01/03 10:47:34;;;;;;;11.70;2.65;;;;;;;9.51;72.87;100360.16;7395557;19;20479;-67
2022/01/03 10:50:15;;;;;;;8.65;2.53;;;;;;;9.51;72.31;100347.06;7396445;19;20010;-67
2022/01/03 10:52:43;;;;;;;16.63;2.85;;;;;;;9.54;77.06;100345.25;7396379;19;20018;-67
2022/01/03 10:55:14;;;;;;;7.20;2.03;;;;;;;9.53;74.03;100353.97;7394069;19;20015;-67
2022/01/03 10:57:52;;;;;;;13.65;2.85;;;;;;;9.51;72.18;100349.69;7396300;19;20011;-67
2022/01/03 11:00:22;;;;;;;13.45;2.65;;;;;;;9.60;74.85;100349.44;7396950;19;20015;-67
2022/01/03 11:03:26;;;;;;;11.45;2.30;;;;;;;9.61;70.23;100359.88;7393147;19;20483;-67
2022/01/03 11:05:58;;;;;;;9.52;2.25;;;;;;;9.69;77.62;100359.72;7394554;19;20019;-67
2022/01/03 11:11:11;;;;;;;8.07;1.98;;;;;;;9.67;73.61;100356.28;7395707;19;20020;-68
2022/01/03 11:13:41;;;;;;;13.75;2.15;;;;;;;9.73;76.28;100361.38;7395325;19;20408;-66
2022/01/03 11:16:11;;;;;;;10.50;2.08;;;;;;;9.75;75.10;100362.16;7394115;19;20081;-67
2022/01/03 11:18:46;;;;;;;7.60;2.13;;;;;;;9.78;73.32;100363.84;7395809;19;20014;-67
2022/01/03 11:21:18;;;;;;;9.88;2.15;;;;;;;9.76;73.70;100350.81;7394893;19;20018;-67
2022/01/03 11:23:49;;;;;;;7.68;2.22;;;;;;;9.78;74.03;100358.63;7394710;19;20402;-67
2022/01/03 11:26:20;;;;;;;7.10;2.05;;;;;;;9.79;75.64;100349.84;7393340;19;20480;-67
2022/01/03 11:28:49;;;;;;;11.70;1.95;;;;;;;9.79;76.10;100352.47;7394939;19;20028;-67
2022/01/03 11:31:20;;;;;;;8.55;2.15;;;;;;;9.80;76.02;100346.34;7394329;19;20019;-67
2022/01/03 11:33:52;;;;;;;9.98;2.10;;;;;;;9.80;73.81;100337.63;7394494;19;20014;-67
2022/01/03 11:36:25;;;;;;;7.97;1.83;;;;;;;9.80;75.70;100348.97;7393170;19;20019;-67
2022/01/03 11:38:53;;;;;;;5.75;1.63;;;;;;;9.81;75.92;100334.97;7393934;19;20451;-67
2022/01/03 11:41:23;;;;;;;10.35;2.13;;;;;;;9.73;76.02;100329.06;7392919;19;20015;-67
2022/01/03 11:43:51;;;;;;;7.10;1.92;;;;;;;9.82;74.99;100339.31;7394453;19;20028;-67
2022/01/03 11:46:19;;;;;;;7.00;1.80;;;;;;;9.77;76.16;100321.09;7393015;19;20024;-68
2022/01/03 11:48:52;;;;;;;6.50;1.95;;;;;;;9.81;72.54;100334.97;7393875;19;20403;-67
2022/01/03 11:51:22;;;;;;;6.43;1.58;;;;;;;9.84;76.65;100332.25;7394131;19;20014;-67
2022/01/03 11:53:52;;;;;;;8.38;2.53;;;;;;;9.82;74.41;100326.22;7394425;19;20022;-67
2022/01/03 11:56:22;;;;;;;7.63;1.70;;;;;;;9.80;72.14;100325.38;7393016;19;20022;-66